createdAt,value
2019-01-11T00:01:19.963Z,20.03
2019-01-11T00:03:50.630Z,24.13
2019-01-11T00:06:21.606Z,18.70
2019-01-11T00:08:51.874Z,16.17
2019-01-11T00:11:22.105Z,19.87
2019-01-11T00:13:52.530Z,21.83
2019-01-11T00:16:22.733Z,17.53
2019-01-11T00:18:52.998Z,18.67
2019-01-11T00:21:23.212Z,21.17
2019-01-11T00:23:53.465Z,18.10
2019-01-11T00:26:23.711Z,16.90
2019-01-11T00:28:53.986Z,21.43
2019-01-11T00:31:24.234Z,17.47
2019-01-11T00:33:54.486Z,21.27
2019-01-11T00:36:24.723Z,21.83
2019-01-11T00:38:54.997Z,19.47
2019-01-11T00:41:25.251Z,16.67
2019-01-11T00:43:55.538Z,20.43
2019-01-11T00:46:25.762Z,20.03
2019-01-11T00:48:56.011Z,23.37
2019-01-11T00:51:26.239Z,17.60
2019-01-11T00:53:56.512Z,23.33
2019-01-11T00:56:26.746Z,21.17
2019-01-11T00:58:57.069Z,21.17
2019-01-11T01:01:27.348Z,24.67
2019-01-11T01:03:57.571Z,21.67
2019-01-11T01:06:27.806Z,20.27
2019-01-11T01:08:58.038Z,26.03
2019-01-11T01:11:28.295Z,19.60
2019-01-11T01:13:58.510Z,23.47
2019-01-11T01:16:28.761Z,22.47
2019-01-11T01:18:58.993Z,20.27
2019-01-11T01:21:30.213Z,18.80
2019-01-11T01:24:00.444Z,20.60
2019-01-11T01:26:30.683Z,18.63
2019-01-11T01:29:00.981Z,19.83
2019-01-11T01:31:32.168Z,19.30
2019-01-11T01:34:02.435Z,17.60
2019-01-11T01:36:32.715Z,21.40
2019-01-11T01:39:03.069Z,20.23
2019-01-11T01:41:33.355Z,21.37
2019-01-11T01:44:05.262Z,21.87
2019-01-11T01:46:35.515Z,21.63
2019-01-11T01:49:05.890Z,24.20
2019-01-11T01:51:36.159Z,23.60
2019-01-11T01:54:06.591Z,18.70
2019-01-11T01:56:37.014Z,21.93
2019-01-11T01:59:07.218Z,21.67
2019-01-11T02:01:37.754Z,20.73
2019-01-11T02:04:07.977Z,21.90
2019-01-11T02:06:38.466Z,22.20
2019-01-11T02:09:09.817Z,22.33
2019-01-11T02:11:41.181Z,21.87
2019-01-11T02:14:11.419Z,22.60
2019-01-11T02:16:41.815Z,26.07
2019-01-11T02:19:12.114Z,27.10
2019-01-11T02:21:42.540Z,26.50
2019-01-11T02:24:12.790Z,25.40
2019-01-11T02:26:43.161Z,25.03
2019-01-11T02:29:13.323Z,22.80
2019-01-11T02:31:43.537Z,23.33
2019-01-11T02:34:13.765Z,18.83
2019-01-11T02:36:43.974Z,19.17
2019-01-11T02:39:14.205Z,18.00
2019-01-11T02:41:44.449Z,23.57
2019-01-11T02:44:14.664Z,23.73
2019-01-11T02:46:44.924Z,22.80
2019-01-11T02:49:15.232Z,21.53
2019-01-11T02:51:45.436Z,21.27
2019-01-11T02:54:15.683Z,21.23
2019-01-11T02:56:45.919Z,16.90
2019-01-11T02:59:16.147Z,21.00
2019-01-11T03:01:46.518Z,18.97
2019-01-11T03:04:16.755Z,20.80
2019-01-11T03:06:47.039Z,19.63
2019-01-11T03:09:17.277Z,20.23
2019-01-11T03:11:47.470Z,18.30
2019-01-11T03:14:17.713Z,21.40
2019-01-11T03:16:47.946Z,20.70
2019-01-11T03:19:18.222Z,23.50
2019-01-11T03:21:48.442Z,18.33
2019-01-11T03:24:18.767Z,20.43
2019-01-11T03:26:48.977Z,19.77
2019-01-11T03:29:19.229Z,21.10
2019-01-11T03:31:49.441Z,20.23
2019-01-11T03:34:19.677Z,19.20
2019-01-11T03:36:49.900Z,20.83
2019-01-11T03:39:20.120Z,24.57
2019-01-11T03:41:58.939Z,23.33
2019-01-11T03:44:29.143Z,19.17
2019-01-11T03:46:59.307Z,24.80
2019-01-11T03:49:29.530Z,23.13
2019-01-11T03:51:59.811Z,20.87
2019-01-11T03:54:30.066Z,21.60
2019-01-11T03:57:00.529Z,23.97
2019-01-11T03:59:30.719Z,21.23
2019-01-11T04:02:00.929Z,18.60
2019-01-11T04:04:31.159Z,21.17
2019-01-11T04:07:01.361Z,23.50
2019-01-11T04:09:31.594Z,21.70
2019-01-11T04:12:01.835Z,23.17
2019-01-11T04:14:32.045Z,22.50
2019-01-11T04:17:02.238Z,23.10
2019-01-11T04:19:32.440Z,22.50
2019-01-11T04:22:30.822Z,27.70
2019-01-11T04:25:04.561Z,24.57
2019-01-11T04:27:34.940Z,21.93
2019-01-11T04:30:08.976Z,22.30
2019-01-11T04:32:39.222Z,22.93
2019-01-11T04:35:09.570Z,23.17
2019-01-11T04:37:40.884Z,31.33
2019-01-11T04:40:12.394Z,24.60
2019-01-11T04:42:42.611Z,29.57
2019-01-11T04:45:13.055Z,37.03
2019-01-11T04:47:43.374Z,21.77
2019-01-11T04:50:17.263Z,31.27
2019-01-11T04:52:47.635Z,24.67
2019-01-11T04:55:17.850Z,32.83
2019-01-11T04:57:49.029Z,27.70
2019-01-11T05:00:23.094Z,27.03
2019-01-11T05:02:53.848Z,29.67
2019-01-11T05:05:23.999Z,27.37
2019-01-11T05:07:54.399Z,26.13
2019-01-11T05:10:24.627Z,26.67
2019-01-11T05:12:55.080Z,31.63
2019-01-11T05:15:25.335Z,24.90
2019-01-11T05:17:55.823Z,26.77
2019-01-11T05:20:26.068Z,25.50
2019-01-11T05:22:56.388Z,25.37
2019-01-11T05:25:26.603Z,27.07
2019-01-11T05:27:56.946Z,26.17
2019-01-11T05:30:27.338Z,28.00
2019-01-11T05:32:57.730Z,32.03
2019-01-11T05:35:28.002Z,32.10
2019-01-11T05:37:58.493Z,32.73
2019-01-11T05:40:28.719Z,36.13
2019-01-11T05:42:58.982Z,31.27
2019-01-11T05:45:30.173Z,27.83
2019-01-11T05:48:00.379Z,32.87
2019-01-11T05:50:30.657Z,32.70
2019-01-11T05:53:01.941Z,30.23
2019-01-11T05:55:52.049Z,29.83
2019-01-11T05:58:39.391Z,36.33
2019-01-11T06:01:09.659Z,32.07
2019-01-11T06:03:40.818Z,35.10
2019-01-11T06:06:11.140Z,37.03
2019-01-11T06:08:41.591Z,38.20
2019-01-11T06:11:11.902Z,35.43
2019-01-11T06:13:42.113Z,40.50
2019-01-11T06:16:12.645Z,27.30
2019-01-11T06:18:42.870Z,30.67
2019-01-11T06:21:13.111Z,32.50
2019-01-11T06:23:43.303Z,33.80
2019-01-11T06:26:13.567Z,32.80
2019-01-11T06:28:44.910Z,33.90
2019-01-11T06:31:15.175Z,36.93
2019-01-11T06:33:45.389Z,38.30
2019-01-11T06:36:15.628Z,37.33
2019-01-11T06:38:45.888Z,41.73
2019-01-11T06:41:16.106Z,35.37
2019-01-11T06:43:48.032Z,31.77
2019-01-11T06:46:18.310Z,37.37
2019-01-11T06:48:49.500Z,37.53
2019-01-11T06:51:19.750Z,39.77
2019-01-11T06:53:50.026Z,40.97
2019-01-11T06:56:20.270Z,38.80
2019-01-11T06:58:50.555Z,44.13
2019-01-11T07:01:21.165Z,41.47
2019-01-11T07:03:51.444Z,40.67
2019-01-11T07:06:21.667Z,43.70
2019-01-11T07:08:51.890Z,39.20
2019-01-11T07:11:22.722Z,52.47
2019-01-11T07:13:53.033Z,45.67
2019-01-11T07:16:23.259Z,49.47
2019-01-11T07:18:53.538Z,37.10
2019-01-11T07:21:23.768Z,42.80
2019-01-11T07:23:53.995Z,48.23
2019-01-11T07:26:24.218Z,42.63
2019-01-11T07:28:54.452Z,38.53
2019-01-11T07:31:27.430Z,39.50
2019-01-11T07:33:58.133Z,48.47
2019-01-11T07:36:33.476Z,50.13
2019-01-11T07:39:12.105Z,47.80
2019-01-11T07:41:42.313Z,44.77
2019-01-11T07:44:12.559Z,43.13
2019-01-11T07:46:44.406Z,47.07
2019-01-11T07:49:14.647Z,39.57
2019-01-11T07:51:44.904Z,43.03
2019-01-11T07:54:15.202Z,40.53
2019-01-11T07:56:47.725Z,38.03
2019-01-11T07:59:18.788Z,46.27
2019-01-11T08:01:49.021Z,41.40
2019-01-11T08:04:19.266Z,40.33
2019-01-11T08:06:49.498Z,43.87
2019-01-11T08:09:19.750Z,39.43
2019-01-11T08:11:50.031Z,40.83
2019-01-11T08:14:20.266Z,44.43
2019-01-11T08:16:50.723Z,46.67
2019-01-11T08:19:20.945Z,45.70
2019-01-11T08:21:51.222Z,43.87
2019-01-11T08:24:21.458Z,52.07
2019-01-11T08:26:51.706Z,40.53
2019-01-11T08:29:21.970Z,50.47
2019-01-11T08:31:52.546Z,48.67
2019-01-11T08:34:22.854Z,57.57
2019-01-11T08:36:53.149Z,54.00
2019-01-11T08:39:23.431Z,57.20
2019-01-11T08:41:54.643Z,53.13
2019-01-11T08:44:24.910Z,54.33
2019-01-11T08:46:55.175Z,47.83
2019-01-11T08:49:25.416Z,42.80
2019-01-11T08:51:55.707Z,52.37
2019-01-11T08:54:25.966Z,48.27
2019-01-11T08:56:56.310Z,49.93
2019-01-11T08:59:26.591Z,42.17
2019-01-11T09:01:56.946Z,42.23
2019-01-11T09:04:27.899Z,52.63
2019-01-11T09:06:58.245Z,47.90
2019-01-11T09:09:28.522Z,47.33
2019-01-11T09:11:58.848Z,40.13
2019-01-11T09:14:53.967Z,40.83
2019-01-11T09:17:24.250Z,36.50
2019-01-11T09:19:54.491Z,43.03
2019-01-11T09:22:24.791Z,42.37
2019-01-11T09:24:55.129Z,37.33
2019-01-11T09:27:25.458Z,35.20
2019-01-11T09:29:55.693Z,39.67
2019-01-11T09:32:26.133Z,36.77
2019-01-11T09:34:56.474Z,45.30
2019-01-11T09:37:26.761Z,33.57
2019-01-11T09:39:56.997Z,40.33
2019-01-11T09:42:27.264Z,27.80
2019-01-11T09:44:57.533Z,39.87
2019-01-11T09:47:27.818Z,37.20
2019-01-11T09:49:58.056Z,37.40
2019-01-11T09:52:28.310Z,34.90
2019-01-11T09:54:58.681Z,33.67
2019-01-11T09:57:28.999Z,37.43
2019-01-11T09:59:59.244Z,33.50
2019-01-11T10:02:36.561Z,39.00
2019-01-11T10:05:08.923Z,39.93
2019-01-11T10:07:39.519Z,38.20
2019-01-11T10:10:12.301Z,35.47
2019-01-11T10:12:42.605Z,34.60
2019-01-11T10:15:14.158Z,31.90
2019-01-11T10:17:44.422Z,28.70
2019-01-11T10:20:15.019Z,28.33
2019-01-11T10:22:45.304Z,27.87
2019-01-11T10:25:16.549Z,24.37
2019-01-11T10:27:46.910Z,18.73
2019-01-11T10:30:18.829Z,22.80
2019-01-11T10:32:51.402Z,19.03
2019-01-11T10:35:22.823Z,17.90
2019-01-11T10:37:53.057Z,19.43
2019-01-11T10:40:23.327Z,16.93
2019-01-11T10:42:53.545Z,15.60
2019-01-11T10:45:23.929Z,14.70
2019-01-11T10:47:54.774Z,15.30
2019-01-11T10:50:25.039Z,16.13
2019-01-11T10:52:55.282Z,15.27
2019-01-11T10:55:25.606Z,19.33
2019-01-11T10:57:55.952Z,14.17
2019-01-11T11:00:27.117Z,15.77
2019-01-11T11:02:57.738Z,15.90
2019-01-11T11:05:28.526Z,15.13
2019-01-11T11:07:58.811Z,15.03
2019-01-11T11:10:29.111Z,14.83
2019-01-11T11:12:59.342Z,14.87
2019-01-11T11:15:29.582Z,14.20
2019-01-11T11:18:00.025Z,15.90
2019-01-11T11:20:30.326Z,15.70
2019-01-11T11:23:00.567Z,16.87
2019-01-11T11:25:30.786Z,16.17
2019-01-11T11:28:01.046Z,16.40
2019-01-11T11:30:31.317Z,16.07
2019-01-11T11:33:02.997Z,15.43
2019-01-11T11:35:33.356Z,18.13
2019-01-11T11:38:03.626Z,18.10
2019-01-11T11:40:34.270Z,18.50
2019-01-11T11:43:04.564Z,19.17
2019-01-11T11:45:34.865Z,20.90
2019-01-11T11:48:05.242Z,20.63
2019-01-11T11:50:35.487Z,22.50
2019-01-11T11:53:05.737Z,23.00
2019-01-11T11:55:35.994Z,23.47
2019-01-11T11:58:06.255Z,23.37
2019-01-11T12:00:36.512Z,24.77
2019-01-11T12:03:06.813Z,28.10
2019-01-11T12:05:37.045Z,28.70
2019-01-11T12:08:07.280Z,31.57
2019-01-11T12:10:37.463Z,31.73
2019-01-11T12:13:07.727Z,32.20
2019-01-11T12:15:38.081Z,31.10
2019-01-11T12:18:08.359Z,30.43
2019-01-11T12:20:38.681Z,32.53
2019-01-11T12:23:08.950Z,31.33
2019-01-11T12:25:39.198Z,31.90
2019-01-11T12:28:09.507Z,30.40
2019-01-11T12:30:39.774Z,30.13
2019-01-11T12:33:10.022Z,35.33
2019-01-11T12:35:40.259Z,32.83
2019-01-11T12:38:13.788Z,29.50
2019-01-11T12:40:42.493Z,31.60
2019-01-11T12:43:12.752Z,27.07
2019-01-11T12:45:42.974Z,31.90
2019-01-11T12:48:13.262Z,27.33
2019-01-11T12:50:43.504Z,29.30
2019-01-11T12:53:13.846Z,31.30
2019-01-11T12:55:44.293Z,28.47
2019-01-11T12:58:14.606Z,30.07
2019-01-11T13:00:44.885Z,33.20
2019-01-11T13:03:15.217Z,34.97
2019-01-11T13:05:45.485Z,30.10
2019-01-11T13:08:15.734Z,28.80
2019-01-11T13:10:46.190Z,27.90
2019-01-11T13:13:16.456Z,29.27
2019-01-11T13:15:46.799Z,31.53
2019-01-11T13:18:17.051Z,34.87
2019-01-11T13:20:47.347Z,31.60
2019-01-11T13:23:17.609Z,26.87
2019-01-11T13:25:49.539Z,29.13
2019-01-11T13:28:19.835Z,30.10
2019-01-11T13:30:50.152Z,25.43
2019-01-11T13:33:21.327Z,24.97
2019-01-11T13:35:51.607Z,30.47
2019-01-11T13:38:21.953Z,28.90
2019-01-11T13:40:52.262Z,32.13
2019-01-11T13:43:22.484Z,29.60
2019-01-11T13:45:53.753Z,25.47
2019-01-11T13:48:23.995Z,27.80
2019-01-11T13:50:54.266Z,30.30
2019-01-11T13:53:24.597Z,29.23
2019-01-11T13:55:54.838Z,25.97
2019-01-11T13:58:25.132Z,30.73
2019-01-11T14:00:55.394Z,30.17
2019-01-11T14:03:25.635Z,30.83
2019-01-11T14:05:55.921Z,31.97
2019-01-11T14:08:26.203Z,33.93
2019-01-11T14:10:56.451Z,30.03
2019-01-11T14:13:26.695Z,32.03
2019-01-11T14:15:56.912Z,35.60
2019-01-11T14:18:27.138Z,28.67
2019-01-11T14:20:57.418Z,30.93
2019-01-11T14:23:27.683Z,31.67
2019-01-11T14:25:58.920Z,33.10
2019-01-11T14:28:29.215Z,30.60
2019-01-11T14:30:59.461Z,28.73
2019-01-11T14:33:29.714Z,28.87
2019-01-11T14:36:00.024Z,27.47
2019-01-11T14:38:30.314Z,24.57
2019-01-11T14:41:00.565Z,26.90
2019-01-11T14:43:30.821Z,25.43
2019-01-11T14:46:01.025Z,27.07
2019-01-11T14:48:31.304Z,26.40
2019-01-11T14:51:01.559Z,27.27
2019-01-11T14:53:31.847Z,25.57
2019-01-11T14:56:02.145Z,28.73
2019-01-11T14:58:32.447Z,24.97
2019-01-11T15:01:02.770Z,24.73
2019-01-11T15:03:33.088Z,24.97
2019-01-11T15:06:03.466Z,27.30
2019-01-11T15:08:33.797Z,26.57
2019-01-11T15:11:04.046Z,28.87
2019-01-11T15:13:34.323Z,30.50
2019-01-11T15:16:04.588Z,28.73
2019-01-11T15:18:34.936Z,34.77
2019-01-11T15:21:05.195Z,31.93
2019-01-11T15:23:35.436Z,32.93
2019-01-11T15:26:05.762Z,29.23
2019-01-11T15:28:36.008Z,31.47
2019-01-11T15:31:06.291Z,35.00
2019-01-11T15:33:36.549Z,33.30
2019-01-11T15:36:06.882Z,32.40
2019-01-11T15:38:37.215Z,32.67
2019-01-11T15:41:07.549Z,34.37
2019-01-11T15:43:37.854Z,32.83
2019-01-11T15:46:14.820Z,31.57
2019-01-11T15:48:51.335Z,35.63
2019-01-11T15:51:26.958Z,30.70
2019-01-11T15:53:59.605Z,33.40
2019-01-11T15:56:29.890Z,33.17
2019-01-11T15:59:00.656Z,35.57
2019-01-11T16:01:32.046Z,37.73
2019-01-11T16:04:09.099Z,39.03
2019-01-11T16:06:41.185Z,40.03
2019-01-11T16:09:36.963Z,41.97
2019-01-11T16:12:09.827Z,44.70
2019-01-11T16:14:46.242Z,37.63
2019-01-11T16:17:17.682Z,38.43
2019-01-11T16:19:47.919Z,36.37
2019-01-11T16:22:18.201Z,38.63
2019-01-11T16:24:48.546Z,38.50
2019-01-11T16:27:18.790Z,40.13
2019-01-11T16:29:49.064Z,40.07
2019-01-11T16:32:19.363Z,41.60
2019-01-11T16:34:49.588Z,39.40
2019-01-11T16:37:19.862Z,40.67
2019-01-11T16:39:50.243Z,38.63
2019-01-11T16:42:20.484Z,36.03
2019-01-11T16:44:50.745Z,35.70
2019-01-11T16:47:21.038Z,41.43
2019-01-11T16:49:53.344Z,34.73
2019-01-11T16:52:23.557Z,38.30
2019-01-11T16:54:53.850Z,34.43
2019-01-11T16:57:24.108Z,32.87
2019-01-11T16:59:54.427Z,33.33
2019-01-11T17:02:24.698Z,32.23
2019-01-11T17:04:54.982Z,36.50
2019-01-11T17:07:25.265Z,37.87
2019-01-11T17:09:55.583Z,40.60
2019-01-11T17:12:25.922Z,38.17
2019-01-11T17:14:56.141Z,40.77
2019-01-11T17:17:26.432Z,42.60
2019-01-11T17:23:05.807Z,39.87
2019-01-11T17:25:36.079Z,44.30
2019-01-11T17:28:06.408Z,41.10
2019-01-11T17:30:36.774Z,38.10
2019-01-11T17:33:07.117Z,40.03
2019-01-11T17:35:37.407Z,38.60
2019-01-11T17:38:07.664Z,40.23
2019-01-11T17:40:37.982Z,34.87
2019-01-11T17:43:13.097Z,33.93
2019-01-11T17:45:43.440Z,38.07
2019-01-11T17:48:13.859Z,38.20
2019-01-11T17:50:44.267Z,40.30
2019-01-11T17:53:14.551Z,39.50
2019-01-11T17:55:44.875Z,43.50
2019-01-11T17:58:16.424Z,34.30
2019-01-11T18:00:46.735Z,33.50
2019-01-11T18:03:16.972Z,28.83
2019-01-11T18:05:47.561Z,32.17
2019-01-11T18:08:17.789Z,33.47
2019-01-11T18:10:49.665Z,34.23
2019-01-11T18:13:19.940Z,31.07
2019-01-11T18:15:50.203Z,30.73
2019-01-11T18:18:20.634Z,32.90
2019-01-11T18:20:51.021Z,33.07
2019-01-11T18:23:21.340Z,31.47
2019-01-11T18:25:51.683Z,26.03
2019-01-11T18:28:22.184Z,28.90
2019-01-11T18:30:52.685Z,22.07
2019-01-11T18:33:23.035Z,20.80
2019-01-11T18:35:55.443Z,20.27
2019-01-11T18:38:25.692Z,20.70
2019-01-11T18:40:58.958Z,18.70
2019-01-11T18:43:29.251Z,19.17
2019-01-11T18:45:59.516Z,20.97
2019-01-11T18:48:29.795Z,22.23
2019-01-11T18:51:00.062Z,24.07
2019-01-11T18:53:30.335Z,24.43
2019-01-11T18:56:05.462Z,24.57
2019-01-11T18:58:32.675Z,25.93
2019-01-11T19:01:02.950Z,26.30
2019-01-11T19:03:33.237Z,29.03
2019-01-11T19:06:03.531Z,23.67
2019-01-11T19:08:39.203Z,22.73
2019-01-11T19:11:09.485Z,28.47
2019-01-11T19:13:39.762Z,27.63
2019-01-11T19:16:10.713Z,28.00
2019-01-11T19:18:41.798Z,28.37
2019-01-11T19:21:15.656Z,28.23
2019-01-11T19:23:46.021Z,28.47
2019-01-11T19:26:16.349Z,32.53
2019-01-11T19:28:53.619Z,28.07
2019-01-11T19:31:23.871Z,32.63
2019-01-11T19:33:55.403Z,29.77
2019-01-11T19:36:25.766Z,33.43
2019-01-11T19:38:57.014Z,29.20
2019-01-11T19:41:27.274Z,29.90
2019-01-11T19:43:57.585Z,33.60
2019-01-11T19:46:28.030Z,34.97
2019-01-11T19:48:58.334Z,29.67
2019-01-11T19:51:31.405Z,31.63
2019-01-11T19:54:01.876Z,31.90
2019-01-11T19:56:32.289Z,32.60
2019-01-11T19:59:04.678Z,33.67
2019-01-11T20:01:35.101Z,29.53
2019-01-11T20:04:05.460Z,31.97
2019-01-11T20:06:35.743Z,30.53
2019-01-11T20:09:08.796Z,36.13
2019-01-11T20:11:39.195Z,36.27
2019-01-11T20:14:09.753Z,31.10
2019-01-11T20:16:42.409Z,29.20
2019-01-11T20:19:12.763Z,27.33
2019-01-11T20:21:43.087Z,28.73
2019-01-11T20:24:13.366Z,27.43
2019-01-11T20:26:43.693Z,28.50
2019-01-11T20:29:13.999Z,23.83
2019-01-11T20:31:44.279Z,30.50
2019-01-11T20:34:14.600Z,25.90
2019-01-11T20:36:54.499Z,20.67
2019-01-11T20:39:24.880Z,25.13
2019-01-11T20:41:55.240Z,19.67
2019-01-11T20:44:28.530Z,18.40
2019-01-11T20:46:58.824Z,21.73
2019-01-11T20:49:29.175Z,22.00
2019-01-11T20:51:59.605Z,22.00
2019-01-11T20:54:51.759Z,22.50
2019-01-11T20:57:22.117Z,23.57
2019-01-11T20:59:52.420Z,28.77
2019-01-11T21:02:22.776Z,28.80
2019-01-11T21:04:53.054Z,27.23
2019-01-11T21:07:23.367Z,27.63
2019-01-11T21:09:53.654Z,30.37
2019-01-11T21:12:23.958Z,29.10
2019-01-11T21:14:54.271Z,30.93
2019-01-11T21:17:24.609Z,27.67
2019-01-11T21:19:54.930Z,34.43
2019-01-11T21:22:25.207Z,29.67
2019-01-11T21:25:00.128Z,30.87
2019-01-11T21:27:27.489Z,31.23
2019-01-11T21:29:59.719Z,32.37
2019-01-11T21:32:30.075Z,26.90
2019-01-11T21:35:00.431Z,27.13
2019-01-11T21:37:30.740Z,27.67
2019-01-11T21:40:01.058Z,27.30
2019-01-11T21:42:32.365Z,30.07
2019-01-11T21:45:02.733Z,29.43
2019-01-11T21:47:34.046Z,29.20
2019-01-11T21:50:05.399Z,29.57
2019-01-11T21:52:35.693Z,31.53
2019-01-11T21:55:06.500Z,29.83
2019-01-11T21:57:36.771Z,25.73
2019-01-11T22:00:13.687Z,29.13
2019-01-11T22:02:45.004Z,25.97
2019-01-11T22:05:15.604Z,29.60
2019-01-11T22:07:45.870Z,25.37
2019-01-11T22:10:16.378Z,29.13
2019-01-11T22:12:47.679Z,25.90
2019-01-11T22:15:18.296Z,30.70
2019-01-11T22:17:48.665Z,27.00
2019-01-11T22:20:19.194Z,28.70
2019-01-11T22:22:49.546Z,25.87
2019-01-11T22:25:19.855Z,22.80
2019-01-11T22:27:50.087Z,27.43
2019-01-11T22:30:21.918Z,31.60
2019-01-11T22:32:52.253Z,28.37
2019-01-11T22:35:22.738Z,29.17
2019-01-11T22:37:53.042Z,27.53
2019-01-11T22:40:24.147Z,27.37
2019-01-11T22:42:56.805Z,26.57
2019-01-11T22:45:27.098Z,31.53
2019-01-11T22:47:57.418Z,25.27
2019-01-11T22:50:39.201Z,27.87
2019-01-11T22:53:09.519Z,25.67
2019-01-11T22:58:11.708Z,27.17
2019-01-11T23:04:06.215Z,26.67
2019-01-11T23:11:06.107Z,19.90
2019-01-11T23:13:36.386Z,23.23
2019-01-11T23:16:30.342Z,22.17
2019-01-11T23:19:00.622Z,23.43
2019-01-11T23:21:30.872Z,24.33
2019-01-11T23:24:01.142Z,25.83
2019-01-11T23:26:31.378Z,21.70
2019-01-11T23:29:02.476Z,23.37
2019-01-11T23:31:32.749Z,23.13
2019-01-11T23:34:03.039Z,21.87
2019-01-11T23:36:33.264Z,23.77
2019-01-11T23:39:03.953Z,19.73
2019-01-11T23:41:34.178Z,20.43
2019-01-11T23:44:04.462Z,21.73
2019-01-11T23:46:34.705Z,22.60
2019-01-11T23:49:04.909Z,19.30
2019-01-11T23:51:35.157Z,20.43
2019-01-11T23:54:05.505Z,16.57
2019-01-11T23:56:35.758Z,15.23
2019-01-11T23:59:06.056Z,16.87
